Decoded Metar for KHIB (HIBBING in MN, USA) (IATA:HIB) | Meteo·Mobile Aviation Weather
aviador You're here:

KHIB Decoded Metar

HIBBING in MN, USA
Report Time2019-07-16 22:53:00
UTC Time2019-07-16 23:03:30
Flight Rules vfr VFR
WindCalm
Visibility9999 m
Phenomena:N/A
Clouds:Few 060 Hf
Scattered 080 Hf
Expected CloudBase > 3,200 ft AGL from Temp-Dew spread
CeilingNone
Temp25°C (ISA +13)
Dew Point17°C (61% RH)
QNH1012 hPa
Density Alt3,114 ft
Elevation1,352 ft
Report Wrong Elevation
Raw Report
KHIB 162253Z AUTO 00000KT 10SM FEW060 SCT080 25/17 A2988 RMK AO2
SLP117 T02500172=

Extra information for KHIB:More info

Metar Taf Metar & Taf Last 4 Metars F.Rules Stats Wind Profile Meteogram Temp Stats Airport Information Weather charts Add Link Nearby VenuesMetar ALERT Operation Metar Decoded Social comments

AIRNAV info for KHIB